createdAt,value
2017-02-24T00:00:13.362Z,25.41
2017-02-24T00:00:33.093Z,25.35
2017-02-24T00:00:52.881Z,25.31
2017-02-24T00:01:12.620Z,25.23
2017-02-24T00:01:32.370Z,25.37
2017-02-24T00:01:52.133Z,25.35
2017-02-24T00:02:11.233Z,25.4
2017-02-24T00:02:30.989Z,25.37
2017-02-24T00:02:50.749Z,25.35
2017-02-24T00:03:10.470Z,25.34
2017-02-24T00:03:30.152Z,25.25
2017-02-24T00:03:49.902Z,25.22
2017-02-24T00:04:09.590Z,25.38
2017-02-24T00:04:28.716Z,25.31
2017-02-24T00:04:47.270Z,25.4
2017-02-24T00:05:20.932Z,25.38
2017-02-24T00:05:39.468Z,25.28
2017-02-24T00:05:59.175Z,25.25
2017-02-24T00:06:18.937Z,25.41
2017-02-24T00:06:38.675Z,25.37
2017-02-24T00:06:58.412Z,25.28
2017-02-24T00:07:18.201Z,25.37
2017-02-24T00:07:37.907Z,25.35
2017-02-24T00:07:57.667Z,25.31
2017-02-24T00:08:16.802Z,25.38
2017-02-24T00:08:36.591Z,25.38
2017-02-24T00:08:56.327Z,25.35
2017-02-24T00:09:15.467Z,25.41
2017-02-24T00:09:35.214Z,25.38
2017-02-24T00:09:54.354Z,25.46
2017-02-24T00:10:14.154Z,25.47
2017-02-24T00:10:33.884Z,25.38
2017-02-24T00:10:53.011Z,25.47
2017-02-24T00:11:12.749Z,25.49
2017-02-24T00:11:32.486Z,25.49
2017-02-24T00:11:52.278Z,25.53
2017-02-24T00:12:12.071Z,25.52
2017-02-24T00:12:31.230Z,25.6
2017-02-24T00:12:50.974Z,25.59
2017-02-24T00:13:11.093Z,25.55
2017-02-24T00:13:30.838Z,25.55
2017-02-24T00:13:50.520Z,25.64
2017-02-24T00:14:10.277Z,25.62
2017-02-24T00:14:28.815Z,25.56
2017-02-24T00:14:48.005Z,25.62
2017-02-24T00:15:07.734Z,25.64
2017-02-24T00:15:26.903Z,25.55
2017-02-24T00:15:46.713Z,25.65
2017-02-24T00:16:19.772Z,25.56
2017-02-24T00:16:38.956Z,25.56
2017-02-24T00:16:58.658Z,25.65
2017-02-24T00:17:18.394Z,25.55
2017-02-24T00:17:38.134Z,25.57
2017-02-24T00:17:57.865Z,25.56
2017-02-24T00:18:17.574Z,25.67
2017-02-24T00:18:37.323Z,25.62
2017-02-24T00:18:57.061Z,25.57
2017-02-24T00:19:16.808Z,25.64
2017-02-24T00:19:36.587Z,25.65
2017-02-24T00:19:56.334Z,25.75
2017-02-24T00:20:15.476Z,25.82
2017-02-24T00:20:35.228Z,25.7
2017-02-24T00:20:54.999Z,25.7
2017-02-24T00:21:14.699Z,25.71
2017-02-24T00:21:34.460Z,25.7
2017-02-24T00:21:54.236Z,25.75
2017-02-24T00:22:14.000Z,25.78
2017-02-24T00:22:33.766Z,25.71
2017-02-24T00:22:53.501Z,25.74
2017-02-24T00:23:13.249Z,25.74
2017-02-24T00:23:33.000Z,25.71
2017-02-24T00:23:52.156Z,25.67
2017-02-24T00:24:11.336Z,25.64
2017-02-24T00:24:31.107Z,25.75
2017-02-24T00:24:50.873Z,25.72
2017-02-24T00:25:10.617Z,25.68
2017-02-24T00:25:30.358Z,25.71
2017-02-24T00:25:49.518Z,25.62
2017-02-24T00:26:08.044Z,25.71
2017-02-24T00:26:27.781Z,25.72
2017-02-24T00:26:47.511Z,25.68
2017-02-24T00:27:07.249Z,25.7
2017-02-24T00:27:26.394Z,25.72
2017-02-24T00:27:46.152Z,25.7
2017-02-24T00:28:05.900Z,25.74
2017-02-24T00:28:25.649Z,25.79
2017-02-24T00:28:45.403Z,25.7
2017-02-24T00:29:05.136Z,25.83
2017-02-24T00:29:24.249Z,25.77
2017-02-24T00:29:44.019Z,25.82
2017-02-24T00:30:03.772Z,25.79
2017-02-24T00:30:23.686Z,25.86
2017-02-24T00:30:43.452Z,25.83
2017-02-24T00:31:03.199Z,25.89
2017-02-24T00:31:22.969Z,25.87
2017-02-24T00:31:42.712Z,25.87
2017-02-24T00:32:02.489Z,25.86
2017-02-24T00:32:21.630Z,25.79
2017-02-24T00:32:41.379Z,25.75
2017-02-24T00:33:00.524Z,25.79
2017-02-24T00:33:20.255Z,25.86
2017-02-24T00:33:39.979Z,25.79
2017-02-24T00:33:59.646Z,25.86
2017-02-24T00:34:19.423Z,25.93
2017-02-24T00:34:39.143Z,25.92
2017-02-24T00:34:58.310Z,25.84
2017-02-24T00:35:18.061Z,25.93
2017-02-24T00:35:37.898Z,25.83
2017-02-24T00:35:57.630Z,25.94
2017-02-24T00:36:17.408Z,25.83
2017-02-24T00:36:37.163Z,25.84
2017-02-24T00:36:56.281Z,25.87
2017-02-24T00:37:16.023Z,25.9
2017-02-24T00:37:35.785Z,25.96
2017-02-24T00:37:55.577Z,25.96
2017-02-24T00:38:14.692Z,25.89
2017-02-24T00:38:34.430Z,25.96
2017-02-24T00:38:54.184Z,25.83
2017-02-24T00:39:13.922Z,25.94
2017-02-24T00:39:33.672Z,26.02
2017-02-24T00:39:53.432Z,26.04
2017-02-24T00:40:13.163Z,25.99
2017-02-24T00:40:32.902Z,25.94
2017-02-24T00:40:52.702Z,25.94
2017-02-24T00:41:12.457Z,26.07
2017-02-24T00:41:31.621Z,25.94
2017-02-24T00:41:51.330Z,25.99
2017-02-24T00:42:10.505Z,25.92
2017-02-24T00:42:30.254Z,25.92
2017-02-24T00:42:49.982Z,26.01
2017-02-24T00:43:09.704Z,25.97
2017-02-24T00:43:28.846Z,25.97
2017-02-24T00:43:48.605Z,25.96
2017-02-24T00:44:08.333Z,25.94
2017-02-24T00:44:27.462Z,26.02
2017-02-24T00:44:47.243Z,25.87
2017-02-24T00:45:07.044Z,26.05
2017-02-24T00:45:26.206Z,25.97
2017-02-24T00:45:46.004Z,25.89
2017-02-24T00:46:05.791Z,25.9
2017-02-24T00:46:25.544Z,25.86
2017-02-24T00:46:44.697Z,25.9
2017-02-24T00:47:04.375Z,25.9
2017-02-24T00:47:24.106Z,25.96
2017-02-24T00:47:43.864Z,25.99
2017-02-24T00:48:03.616Z,25.93
2017-02-24T00:48:22.800Z,25.84
2017-02-24T00:48:42.566Z,25.84
2017-02-24T00:49:02.358Z,25.92
2017-02-24T00:49:22.138Z,26.01
2017-02-24T00:49:41.929Z,25.96
2017-02-24T00:50:01.058Z,26.05
2017-02-24T00:50:20.777Z,25.9
2017-02-24T00:50:40.518Z,25.99
2017-02-24T00:51:00.280Z,26.05
2017-02-24T00:51:20.009Z,26.01
2017-02-24T00:51:39.735Z,25.94
2017-02-24T00:51:58.928Z,25.94
2017-02-24T00:52:18.104Z,25.93
2017-02-24T00:52:37.837Z,25.93
2017-02-24T00:52:57.547Z,25.94
2017-02-24T00:53:17.303Z,25.82
2017-02-24T00:53:37.015Z,25.93
2017-02-24T00:53:56.776Z,25.86
2017-02-24T00:54:15.337Z,25.87
2017-02-24T00:54:35.100Z,25.82
2017-02-24T00:54:54.854Z,25.79
2017-02-24T00:55:14.603Z,25.79
2017-02-24T00:55:34.625Z,25.83
2017-02-24T00:55:54.337Z,25.65
2017-02-24T00:56:14.100Z,25.7
2017-02-24T00:56:33.808Z,25.65
2017-02-24T00:56:53.538Z,25.65
2017-02-24T00:57:13.584Z,25.56
2017-02-24T00:57:33.323Z,25.55
2017-02-24T00:57:53.058Z,25.64
2017-02-24T00:58:12.781Z,25.53
2017-02-24T00:58:32.544Z,25.53
2017-02-24T00:58:52.218Z,25.57
2017-02-24T00:59:11.982Z,25.53
2017-02-24T00:59:31.140Z,25.56
2017-02-24T00:59:50.876Z,25.53
2017-02-24T01:00:10.063Z,25.53
2017-02-24T01:00:29.857Z,25.5
2017-02-24T01:00:49.601Z,25.52
2017-02-24T01:01:09.326Z,25.62
2017-02-24T01:01:28.456Z,25.52
2017-02-24T01:01:48.186Z,25.5
2017-02-24T01:02:07.931Z,25.42
2017-02-24T01:02:27.184Z,25.5
2017-02-24T01:02:46.343Z,25.55
2017-02-24T01:03:06.060Z,25.49
2017-02-24T01:03:25.274Z,25.53
2017-02-24T01:03:45.015Z,25.38
2017-02-24T01:04:04.757Z,25.41
2017-02-24T01:04:24.487Z,25.38
2017-02-24T01:04:44.230Z,25.45
2017-02-24T01:05:03.992Z,25.2
2017-02-24T01:05:23.733Z,25.35
2017-02-24T01:05:43.485Z,25.42
2017-02-24T01:06:03.222Z,25.38
2017-02-24T01:06:22.991Z,25.46
2017-02-24T01:06:43.203Z,25.45
2017-02-24T01:07:02.966Z,25.5
2017-02-24T01:07:22.727Z,25.4
2017-02-24T01:07:41.301Z,25.42
2017-02-24T01:08:00.488Z,25.5
2017-02-24T01:08:20.219Z,25.5
2017-02-24T01:08:39.996Z,25.5
2017-02-24T01:08:59.757Z,25.59
2017-02-24T01:09:19.498Z,25.55
2017-02-24T01:09:39.232Z,25.59
2017-02-24T01:09:59.007Z,25.57
2017-02-24T01:10:18.349Z,25.52
2017-02-24T01:10:38.117Z,25.57
2017-02-24T01:10:56.631Z,25.6
2017-02-24T01:11:15.796Z,25.55
2017-02-24T01:11:35.575Z,25.53
2017-02-24T01:11:55.344Z,25.59
2017-02-24T01:12:15.097Z,25.62
2017-02-24T01:12:34.821Z,25.62
2017-02-24T01:12:54.548Z,25.53
2017-02-24T01:13:13.702Z,25.6
2017-02-24T01:13:32.841Z,25.55
2017-02-24T01:13:52.565Z,25.57
2017-02-24T01:14:12.338Z,25.59
2017-02-24T01:14:32.087Z,25.56
2017-02-24T01:14:51.878Z,25.55
2017-02-24T01:15:11.668Z,25.57
2017-02-24T01:15:31.464Z,25.53
2017-02-24T01:15:51.240Z,25.55
2017-02-24T01:16:11.037Z,25.6
2017-02-24T01:16:30.159Z,25.55
2017-02-24T01:16:49.935Z,25.62
2017-02-24T01:17:09.642Z,25.55
2017-02-24T01:17:29.349Z,25.5
2017-02-24T01:17:49.072Z,25.45
2017-02-24T01:18:08.220Z,25.47
2017-02-24T01:18:27.360Z,25.46
2017-02-24T01:18:47.120Z,25.47
2017-02-24T01:19:06.229Z,25.5
2017-02-24T01:19:25.994Z,25.42
2017-02-24T01:19:45.761Z,25.4
2017-02-24T01:20:05.737Z,25.4
2017-02-24T01:20:24.903Z,25.46
2017-02-24T01:20:44.659Z,25.37
2017-02-24T01:21:04.446Z,25.4
2017-02-24T01:21:24.229Z,25.32
2017-02-24T01:21:43.960Z,25.37
2017-02-24T01:22:03.711Z,25.4
2017-02-24T01:22:22.841Z,25.35
2017-02-24T01:22:41.961Z,25.31
2017-02-24T01:23:01.703Z,25.34
2017-02-24T01:23:21.479Z,25.38
2017-02-24T01:23:41.219Z,25.37
2017-02-24T01:24:00.939Z,25.34
2017-02-24T01:24:20.649Z,25.41
2017-02-24T01:24:40.427Z,25.35
2017-02-24T01:25:00.219Z,25.35
2017-02-24T01:25:19.371Z,25.32
2017-02-24T01:25:39.129Z,25.37
2017-02-24T01:25:58.891Z,25.34
2017-02-24T01:26:18.641Z,25.38
2017-02-24T01:26:38.442Z,25.41
2017-02-24T01:26:58.174Z,25.27
2017-02-24T01:27:17.932Z,25.31
2017-02-24T01:27:37.664Z,25.35
2017-02-24T01:27:57.428Z,25.41
2017-02-24T01:28:17.198Z,25.38
2017-02-24T01:28:35.713Z,25.35
2017-02-24T01:28:55.490Z,25.35
2017-02-24T01:29:15.233Z,25.35
2017-02-24T01:29:34.960Z,25.38
2017-02-24T01:29:54.711Z,25.45
2017-02-24T01:30:14.455Z,25.47
2017-02-24T01:30:34.198Z,25.47
2017-02-24T01:30:53.914Z,25.41
2017-02-24T01:31:13.672Z,25.37
2017-02-24T01:31:33.393Z,25.53
2017-02-24T01:32:07.023Z,25.49
2017-02-24T01:32:26.148Z,25.45
2017-02-24T01:32:45.906Z,25.42
2017-02-24T01:33:05.647Z,25.37
2017-02-24T01:33:25.387Z,25.46
2017-02-24T01:33:45.145Z,25.35
2017-02-24T01:34:04.905Z,25.45
2017-02-24T01:34:24.669Z,25.35
2017-02-24T01:34:44.392Z,25.32
2017-02-24T01:35:04.172Z,25.34
2017-02-24T01:35:24.147Z,25.37
2017-02-24T01:35:43.901Z,25.35
2017-02-24T01:36:03.689Z,25.37
2017-02-24T01:36:23.452Z,25.38
2017-02-24T01:36:42.585Z,25.38
2017-02-24T01:37:02.301Z,25.46
2017-02-24T01:37:21.432Z,25.37
2017-02-24T01:37:41.169Z,25.37
2017-02-24T01:38:00.289Z,25.37
2017-02-24T01:38:20.010Z,25.37
2017-02-24T01:38:39.727Z,25.34
2017-02-24T01:38:59.480Z,25.3
2017-02-24T01:39:18.608Z,25.31
2017-02-24T01:39:38.374Z,25.28
2017-02-24T01:39:58.128Z,25.4
2017-02-24T01:40:17.266Z,25.32
2017-02-24T01:40:37.006Z,25.28
2017-02-24T01:40:56.765Z,25.27
2017-02-24T01:41:15.909Z,25.17
2017-02-24T01:41:35.085Z,25.13
2017-02-24T01:41:54.840Z,25.1
2017-02-24T01:42:14.560Z,25.08
2017-02-24T01:42:34.245Z,25.09
2017-02-24T01:42:53.953Z,25.13
2017-02-24T01:43:13.756Z,25.12
2017-02-24T01:43:32.888Z,25.01
2017-02-24T01:43:52.649Z,24.98
2017-02-24T01:44:12.420Z,24.95
2017-02-24T01:44:32.185Z,25.02
2017-02-24T01:44:51.930Z,25.01
2017-02-24T01:45:11.672Z,25.04
2017-02-24T01:45:31.438Z,25
2017-02-24T01:45:51.172Z,25.02
2017-02-24T01:46:10.307Z,25
2017-02-24T01:46:30.043Z,25.02
2017-02-24T01:46:49.813Z,24.97
2017-02-24T01:47:09.553Z,24.94
2017-02-24T01:47:29.323Z,24.86
2017-02-24T01:47:49.044Z,24.9
2017-02-24T01:48:08.751Z,24.91
2017-02-24T01:48:28.507Z,24.94
2017-02-24T01:48:48.254Z,24.93
2017-02-24T01:49:07.403Z,24.98
2017-02-24T01:49:25.345Z,24.98
2017-02-24T01:49:45.116Z,25.02
2017-02-24T01:50:04.999Z,24.94
2017-02-24T01:50:24.744Z,24.97
2017-02-24T01:50:44.514Z,24.94
2017-02-24T01:51:04.236Z,25.01
2017-02-24T01:51:24.010Z,25.04
2017-02-24T01:51:43.799Z,24.91
2017-02-24T01:52:03.574Z,24.83
2017-02-24T01:52:22.683Z,24.8
2017-02-24T01:52:41.868Z,24.75
2017-02-24T01:53:01.022Z,24.79
2017-02-24T01:53:20.764Z,24.75
2017-02-24T01:53:40.539Z,24.75
2017-02-24T01:53:59.073Z,24.67
2017-02-24T01:54:18.218Z,24.66
2017-02-24T01:54:37.990Z,24.79
2017-02-24T01:54:57.730Z,24.75
2017-02-24T01:55:17.478Z,24.73
2017-02-24T01:55:37.203Z,24.82
2017-02-24T01:55:56.983Z,24.8
2017-02-24T01:56:16.123Z,24.8
2017-02-24T01:56:35.863Z,24.78
2017-02-24T01:56:55.629Z,24.73
2017-02-24T01:57:15.365Z,24.75
2017-02-24T01:57:35.103Z,24.79
2017-02-24T01:57:54.870Z,24.82
2017-02-24T01:58:14.006Z,24.82
2017-02-24T01:58:33.799Z,24.93
2017-02-24T01:58:52.952Z,24.85
2017-02-24T01:59:12.676Z,24.9
2017-02-24T01:59:31.237Z,24.93
2017-02-24T01:59:50.985Z,24.9
2017-02-24T02:00:10.717Z,24.9
2017-02-24T02:00:30.454Z,24.91
2017-02-24T02:00:50.144Z,24.88
2017-02-24T02:01:09.902Z,25.01
2017-02-24T02:01:29.654Z,24.9
2017-02-24T02:01:49.366Z,24.83
2017-02-24T02:02:09.137Z,24.88
2017-02-24T02:02:28.878Z,24.91
2017-02-24T02:02:48.588Z,25.01
2017-02-24T02:03:07.762Z,24.95
2017-02-24T02:03:26.892Z,24.95
2017-02-24T02:03:46.652Z,25.01
2017-02-24T02:04:06.359Z,24.95
2017-02-24T02:04:25.477Z,24.98
2017-02-24T02:04:44.602Z,25.02
2017-02-24T02:05:04.315Z,25.04
2017-02-24T02:05:23.477Z,25.04
2017-02-24T02:05:43.232Z,24.98
2017-02-24T02:06:02.944Z,24.97
2017-02-24T02:06:22.725Z,24.95
2017-02-24T02:06:42.525Z,25
2017-02-24T02:07:02.308Z,24.94
2017-02-24T02:07:22.056Z,24.93
2017-02-24T02:07:41.819Z,24.91
2017-02-24T02:08:01.616Z,24.91
2017-02-24T02:08:20.737Z,24.85
2017-02-24T02:08:40.448Z,24.95
2017-02-24T02:09:00.226Z,24.9
2017-02-24T02:09:19.948Z,24.85
2017-02-24T02:09:39.090Z,24.9
2017-02-24T02:09:58.259Z,24.8
2017-02-24T02:10:18.013Z,24.8
2017-02-24T02:10:37.729Z,24.71
2017-02-24T02:10:57.465Z,24.67
2017-02-24T02:11:17.225Z,24.67
2017-02-24T02:11:36.982Z,24.62
2017-02-24T02:11:56.738Z,24.57
2017-02-24T02:12:16.474Z,24.57
2017-02-24T02:12:35.646Z,24.52
2017-02-24T02:12:55.396Z,24.53
2017-02-24T02:13:15.116Z,24.41
2017-02-24T02:13:34.836Z,24.45
2017-02-24T02:13:54.573Z,24.41
2017-02-24T02:14:13.702Z,24.3
2017-02-24T02:14:33.460Z,24.25
2017-02-24T02:14:53.194Z,24.27
2017-02-24T02:15:12.903Z,24.26
2017-02-24T02:15:32.622Z,24.2
2017-02-24T02:16:06.285Z,24.17
2017-02-24T02:16:26.023Z,24.17
2017-02-24T02:16:45.752Z,24.15
2017-02-24T02:17:05.480Z,24.08
2017-02-24T02:17:25.215Z,24.15
2017-02-24T02:17:44.953Z,24.19
2017-02-24T02:18:04.698Z,24.12
2017-02-24T02:18:23.857Z,24.01
2017-02-24T02:18:43.613Z,24.05
2017-02-24T02:19:03.365Z,24.08
2017-02-24T02:19:23.164Z,24.08
2017-02-24T02:19:42.320Z,24.12
2017-02-24T02:20:02.081Z,24.12
2017-02-24T02:20:21.240Z,24.2
2017-02-24T02:20:41.037Z,24.04
2017-02-24T02:21:00.784Z,24.15
2017-02-24T02:21:20.458Z,24.08
2017-02-24T02:21:40.198Z,24.04
2017-02-24T02:22:00.022Z,24.1
2017-02-24T02:22:19.735Z,24.25
2017-02-24T02:22:38.933Z,24.2
2017-02-24T02:22:58.095Z,24.1
2017-02-24T02:23:17.849Z,24.1
2017-02-24T02:23:37.587Z,24
2017-02-24T02:23:57.319Z,23.98
2017-02-24T02:24:17.036Z,23.9
2017-02-24T02:24:36.749Z,23.87
2017-02-24T02:24:56.505Z,23.83
2017-02-24T02:25:15.077Z,23.85
2017-02-24T02:26:08.464Z,23.82
2017-02-24T02:26:28.204Z,23.79
2017-02-24T02:26:47.932Z,23.9
2017-02-24T02:27:07.678Z,23.79
2017-02-24T02:27:26.815Z,23.83
2017-02-24T02:27:46.507Z,23.89
2017-02-24T02:28:06.247Z,23.92
2017-02-24T02:28:25.427Z,23.93
2017-02-24T02:28:45.185Z,23.89
2017-02-24T02:29:04.297Z,23.82
2017-02-24T02:29:24.051Z,23.85
2017-02-24T02:29:43.816Z,23.85
2017-02-24T02:30:03.767Z,23.89
2017-02-24T02:30:23.168Z,23.87
2017-02-24T02:30:42.911Z,23.87
2017-02-24T02:31:02.652Z,23.79
2017-02-24T02:31:22.475Z,23.8
2017-02-24T02:31:42.208Z,23.87
2017-02-24T02:32:01.984Z,23.89
2017-02-24T02:32:21.134Z,23.95
2017-02-24T02:32:41.019Z,23.87
2017-02-24T02:33:00.773Z,23.9
2017-02-24T02:33:20.499Z,23.93
2017-02-24T02:33:40.325Z,23.9
2017-02-24T02:34:00.189Z,23.85
2017-02-24T02:34:19.955Z,23.75
2017-02-24T02:34:39.784Z,23.72
2017-02-24T02:34:59.514Z,23.7
2017-02-24T02:35:19.306Z,23.74
2017-02-24T02:35:39.061Z,23.67
2017-02-24T02:35:58.824Z,23.7
2017-02-24T02:36:18.584Z,23.68
2017-02-24T02:36:37.721Z,23.75
2017-02-24T02:36:57.501Z,23.74
2017-02-24T02:37:16.726Z,23.8
2017-02-24T02:37:36.522Z,23.78
2017-02-24T02:37:56.290Z,23.79
2017-02-24T02:38:14.864Z,23.85
2017-02-24T02:38:34.639Z,23.8
2017-02-24T02:38:54.430Z,23.87
2017-02-24T02:39:14.136Z,23.9
2017-02-24T02:39:33.923Z,23.98
2017-02-24T02:39:53.699Z,23.98
2017-02-24T02:40:12.843Z,23.98
2017-02-24T02:40:32.590Z,24
2017-02-24T02:40:52.290Z,24
2017-02-24T02:41:12.031Z,24.07
2017-02-24T02:41:31.878Z,24.01
2017-02-24T02:41:51.618Z,24.08
2017-02-24T02:42:10.778Z,24.08
2017-02-24T02:42:29.951Z,24.1
2017-02-24T02:42:49.838Z,24.11
2017-02-24T02:43:09.608Z,24.07
2017-02-24T02:43:29.353Z,24.08
2017-02-24T02:43:49.062Z,24.05
2017-02-24T02:44:08.775Z,24.04
2017-02-24T02:44:27.899Z,24.12
2017-02-24T02:44:47.657Z,24.19
2017-02-24T02:45:07.408Z,24.23
2017-02-24T02:45:27.186Z,24.22
2017-02-24T02:45:46.964Z,24.23
2017-02-24T02:46:06.128Z,24.23
2017-02-24T02:46:25.894Z,24.25
2017-02-24T02:46:45.658Z,24.08
2017-02-24T02:47:05.393Z,24.25
2017-02-24T02:47:25.196Z,24.23
2017-02-24T02:47:44.997Z,24.34
2017-02-24T02:48:04.777Z,24.26
2017-02-24T02:48:24.506Z,24.22
2017-02-24T02:48:44.238Z,24.19
2017-02-24T02:49:03.378Z,24.25
2017-02-24T02:49:23.172Z,24.2
2017-02-24T02:49:42.950Z,24.27
2017-02-24T02:50:02.737Z,24.12
2017-02-24T02:50:22.743Z,24.17
2017-02-24T02:50:41.883Z,24.2
2017-02-24T02:51:01.679Z,24.17
2017-02-24T02:51:21.405Z,24.27
2017-02-24T02:51:41.168Z,24.3
2017-02-24T02:52:00.905Z,24.27
2017-02-24T02:52:19.438Z,24.34
2017-02-24T02:52:39.201Z,24.34
2017-02-24T02:52:58.963Z,24.27
2017-02-24T02:53:18.107Z,24.32
2017-02-24T02:53:37.870Z,24.23
2017-02-24T02:53:57.627Z,24.08
2017-02-24T02:54:17.401Z,24
2017-02-24T02:54:37.165Z,24.04
2017-02-24T02:54:56.854Z,24.19
2017-02-24T02:55:16.589Z,24.15
2017-02-24T02:55:35.748Z,24.05
2017-02-24T02:55:55.463Z,24
2017-02-24T02:56:15.169Z,24.04
2017-02-24T02:56:34.900Z,24.05
2017-02-24T02:56:54.641Z,24.02
2017-02-24T02:57:13.808Z,23.95
2017-02-24T02:57:33.522Z,23.89
2017-02-24T02:57:53.266Z,23.92
2017-02-24T02:58:12.991Z,23.9
2017-02-24T02:58:32.718Z,23.78
2017-02-24T02:58:52.469Z,23.97
2017-02-24T02:59:12.187Z,23.85
2017-02-24T02:59:31.944Z,23.92
2017-02-24T02:59:51.716Z,23.9
2017-02-24T03:00:10.861Z,23.85
2017-02-24T03:00:30.645Z,23.98
2017-02-24T03:00:50.368Z,24.02
2017-02-24T03:01:10.161Z,24.01
2017-02-24T03:01:29.946Z,23.98
2017-02-24T03:01:49.715Z,23.97
2017-02-24T03:02:09.439Z,23.95
2017-02-24T03:02:28.565Z,24.07
2017-02-24T03:02:48.321Z,24.02
2017-02-24T03:03:08.065Z,23.95
2017-02-24T03:03:27.771Z,24
2017-02-24T03:03:47.526Z,24.01
2017-02-24T03:04:07.332Z,23.97
2017-02-24T03:04:27.086Z,24.12
2017-02-24T03:04:46.867Z,24.08
2017-02-24T03:05:06.020Z,24.02
2017-02-24T03:05:25.795Z,24.02
2017-02-24T03:05:45.555Z,24.05
2017-02-24T03:06:04.679Z,24.07
2017-02-24T03:06:24.399Z,24
2017-02-24T03:06:44.124Z,24.08
2017-02-24T03:07:03.832Z,24.07
2017-02-24T03:07:23.576Z,24.08
2017-02-24T03:07:43.344Z,24.08
2017-02-24T03:08:03.092Z,24.02
2017-02-24T03:08:22.220Z,24.01
2017-02-24T03:08:41.931Z,24.08
2017-02-24T03:09:01.680Z,24.07
2017-02-24T03:09:20.847Z,24.08
2017-02-24T03:09:40.553Z,24.05
2017-02-24T03:10:00.367Z,23.98
2017-02-24T03:10:20.512Z,24.05
2017-02-24T03:10:40.282Z,24.02
2017-02-24T03:11:00.030Z,24.08
2017-02-24T03:11:19.755Z,24.04
2017-02-24T03:11:38.911Z,23.95
2017-02-24T03:11:58.665Z,24
2017-02-24T03:12:17.812Z,24.02
2017-02-24T03:12:37.594Z,23.95
2017-02-24T03:12:57.356Z,24.01
2017-02-24T03:13:17.154Z,23.97
2017-02-24T03:13:36.882Z,24.05
2017-02-24T03:13:56.631Z,23.93
2017-02-24T03:14:15.768Z,23.86
2017-02-24T03:14:35.514Z,23.7
2017-02-24T03:14:55.245Z,23.78
2017-02-24T03:15:15.018Z,23.68
2017-02-24T03:15:34.792Z,23.7
2017-02-24T03:15:54.564Z,23.75
2017-02-24T03:16:14.350Z,23.65
2017-02-24T03:16:34.105Z,23.68
2017-02-24T03:16:53.878Z,23.6
2017-02-24T03:17:13.592Z,23.75
2017-02-24T03:17:32.771Z,23.79
2017-02-24T03:17:52.529Z,23.68
2017-02-24T03:18:12.283Z,23.72
2017-02-24T03:18:32.006Z,23.79
2017-02-24T03:18:51.754Z,23.65
2017-02-24T03:19:10.957Z,23.65
2017-02-24T03:19:30.124Z,23.63
2017-02-24T03:19:49.893Z,23.6
2017-02-24T03:20:09.096Z,23.58
2017-02-24T03:20:28.860Z,23.53
2017-02-24T03:20:48.011Z,23.53
2017-02-24T03:21:07.749Z,23.53
2017-02-24T03:21:27.501Z,23.49
2017-02-24T03:21:47.313Z,23.55
2017-02-24T03:22:07.029Z,23.55
2017-02-24T03:22:26.815Z,23.6
2017-02-24T03:22:46.584Z,23.53
2017-02-24T03:23:06.329Z,23.56
2017-02-24T03:23:26.118Z,23.68
2017-02-24T03:23:45.865Z,23.68
2017-02-24T03:24:05.596Z,23.67
2017-02-24T03:24:24.730Z,23.6
2017-02-24T03:24:44.446Z,23.63
2017-02-24T03:25:03.608Z,23.49
2017-02-24T03:25:22.919Z,23.5
2017-02-24T03:25:42.082Z,23.46
2017-02-24T03:26:01.907Z,23.5
2017-02-24T03:26:21.025Z,23.46
2017-02-24T03:26:40.737Z,23.43
2017-02-24T03:27:00.444Z,23.49
2017-02-24T03:27:19.629Z,23.53
2017-02-24T03:27:38.754Z,23.55
2017-02-24T03:27:58.502Z,23.5
2017-02-24T03:28:18.289Z,23.53
2017-02-24T03:28:38.004Z,23.52
2017-02-24T03:28:57.753Z,23.43
2017-02-24T03:29:17.468Z,23.5
2017-02-24T03:29:37.207Z,23.53
2017-02-24T03:29:56.956Z,23.46
2017-02-24T03:30:16.899Z,23.49
2017-02-24T03:30:36.644Z,23.56
2017-02-24T03:30:56.389Z,23.6
2017-02-24T03:31:16.126Z,23.55
2017-02-24T03:31:35.870Z,23.63
2017-02-24T03:31:55.589Z,23.5
2017-02-24T03:32:14.739Z,23.52
2017-02-24T03:32:34.493Z,23.65
2017-02-24T03:32:53.654Z,23.61
2017-02-24T03:33:13.430Z,23.5
2017-02-24T03:33:32.603Z,23.43
2017-02-24T03:33:52.331Z,23.55
2017-02-24T03:34:12.056Z,23.43
2017-02-24T03:34:31.780Z,23.55
2017-02-24T03:34:51.508Z,23.49
2017-02-24T03:35:10.656Z,23.68
2017-02-24T03:35:29.809Z,23.53
2017-02-24T03:35:49.545Z,23.55
2017-02-24T03:36:09.278Z,23.53
2017-02-24T03:36:28.464Z,23.42
2017-02-24T03:36:48.206Z,23.48
2017-02-24T03:37:07.990Z,23.52
2017-02-24T03:37:27.733Z,23.42
2017-02-24T03:37:47.506Z,23.64
2017-02-24T03:38:06.663Z,23.49
2017-02-24T03:38:25.791Z,23.6
2017-02-24T03:38:45.546Z,23.63
2017-02-24T03:39:05.278Z,23.63
2017-02-24T03:39:24.420Z,23.65
2017-02-24T03:39:44.150Z,23.72
2017-02-24T03:40:03.896Z,23.74
2017-02-24T03:40:23.920Z,23.78
2017-02-24T03:40:43.631Z,23.65
2017-02-24T03:41:03.394Z,23.72
2017-02-24T03:41:23.153Z,23.68
2017-02-24T03:41:42.929Z,23.79
2017-02-24T03:42:02.641Z,23.75
2017-02-24T03:42:22.393Z,23.8
2017-02-24T03:42:42.155Z,23.71
2017-02-24T03:43:01.903Z,23.74
2017-02-24T03:43:21.651Z,23.61
2017-02-24T03:43:41.491Z,23.64
2017-02-24T03:44:00.647Z,23.65
2017-02-24T03:44:19.797Z,23.52
2017-02-24T03:44:39.547Z,23.65
2017-02-24T03:44:58.698Z,23.63
2017-02-24T03:45:17.830Z,23.56
2017-02-24T03:45:37.607Z,23.61
2017-02-24T03:45:57.324Z,23.67
2017-02-24T03:46:15.840Z,23.67
2017-02-24T03:46:35.583Z,23.61
2017-02-24T03:46:55.317Z,23.7
2017-02-24T03:47:15.071Z,23.61
2017-02-24T03:47:34.781Z,23.72
2017-02-24T03:47:54.579Z,23.72
2017-02-24T03:48:14.283Z,23.78
2017-02-24T03:48:34.035Z,23.72
2017-02-24T03:48:53.799Z,23.65
2017-02-24T03:49:13.530Z,23.72
2017-02-24T03:49:32.664Z,23.63
2017-02-24T03:49:52.408Z,23.61
2017-02-24T03:50:10.934Z,23.65
2017-02-24T03:50:30.747Z,23.67
2017-02-24T03:50:50.473Z,23.72
2017-02-24T03:51:09.603Z,23.75
2017-02-24T03:51:29.476Z,23.61
2017-02-24T03:51:49.237Z,23.65
2017-02-24T03:52:08.975Z,23.61
2017-02-24T03:52:28.757Z,23.65
2017-02-24T03:52:47.871Z,23.61
2017-02-24T03:53:07.662Z,23.67
2017-02-24T03:53:26.767Z,23.74
2017-02-24T03:53:46.493Z,23.65
2017-02-24T03:54:06.214Z,23.6
2017-02-24T03:54:25.967Z,23.75
2017-02-24T03:54:45.767Z,23.71
2017-02-24T03:55:04.913Z,23.79
2017-02-24T03:55:24.852Z,23.72
2017-02-24T03:55:44.597Z,23.63
2017-02-24T03:56:04.359Z,23.72
2017-02-24T03:56:23.518Z,23.7
2017-02-24T03:56:43.231Z,23.72
2017-02-24T03:57:02.959Z,23.64
2017-02-24T03:57:22.672Z,23.74
2017-02-24T03:57:42.404Z,23.74
2017-02-24T03:58:00.950Z,23.78
2017-02-24T03:58:20.728Z,23.7
2017-02-24T03:58:40.488Z,23.67
2017-02-24T03:59:00.234Z,23.74
2017-02-24T03:59:19.956Z,23.7
2017-02-24T03:59:39.711Z,23.7
2017-02-24T03:59:59.426Z,23.72
2017-02-24T04:00:19.173Z,23.7
2017-02-24T04:00:38.929Z,23.72
2017-02-24T04:00:58.732Z,23.71
2017-02-24T04:01:18.473Z,23.79
2017-02-24T04:01:38.214Z,23.8
2017-02-24T04:01:57.998Z,23.79
2017-02-24T04:02:17.761Z,23.82
2017-02-24T04:02:37.504Z,23.79
2017-02-24T04:02:57.239Z,23.89
2017-02-24T04:03:16.359Z,23.87
2017-02-24T04:03:36.142Z,23.93
2017-02-24T04:03:55.922Z,23.85
2017-02-24T04:04:15.018Z,23.85
2017-02-24T04:04:34.764Z,23.89
2017-02-24T04:04:54.466Z,23.82
2017-02-24T04:05:13.543Z,23.86
2017-02-24T04:05:33.307Z,23.86
2017-02-24T04:05:53.119Z,23.9
2017-02-24T04:06:12.269Z,23.9
2017-02-24T04:06:32.011Z,23.9
2017-02-24T04:06:51.737Z,23.93
2017-02-24T04:07:11.440Z,24.01
2017-02-24T04:07:31.162Z,24.02
2017-02-24T04:07:50.913Z,24.02
2017-02-24T04:08:10.648Z,24
2017-02-24T04:08:29.796Z,23.97
2017-02-24T04:08:49.565Z,23.95
2017-02-24T04:09:08.768Z,23.83
2017-02-24T04:09:28.537Z,23.75
2017-02-24T04:09:48.269Z,23.8
2017-02-24T04:10:07.424Z,23.78
2017-02-24T04:10:26.151Z,23.79
2017-02-24T04:10:45.891Z,23.74
2017-02-24T04:11:04.414Z,23.8
2017-02-24T04:11:24.166Z,23.87
2017-02-24T04:11:43.924Z,23.85
2017-02-24T04:12:03.662Z,23.82
2017-02-24T04:12:23.399Z,23.9
2017-02-24T04:12:43.152Z,23.87
2017-02-24T04:13:02.909Z,23.85
2017-02-24T04:13:22.665Z,23.8
2017-02-24T04:13:42.404Z,23.85
2017-02-24T04:14:02.129Z,23.74
2017-02-24T04:14:21.287Z,23.72
2017-02-24T04:14:41.086Z,23.78
2017-02-24T04:15:00.814Z,23.75
2017-02-24T04:15:20.546Z,23.71
2017-02-24T04:15:40.287Z,23.78